Time,TemperatureF,DewpointF,PressureIn,WindDirection,WindDirectionDegrees,WindSpeedMPH,WindSpeedGustMPH,Humidity,HourlyPrecipIn,Conditions,Clouds,dailyrainin,SoftwareType,DateUTC
2013-03-08 00:00:00,28.9,4.1,27.64,NNW,333,3.1,3.6,34,0.00,,---,0.00,VWS V14.01,2013-03-08 05:00:00,
2013-03-08 00:01:00,28.9,4.1,27.64,SSW,198,5.8,7.6,34,0.00,,---,0.00,VWS V14.01,2013-03-08 05:01:00,
2013-03-08 00:06:00,28.9,4.1,27.64,NW,322,4.5,4.9,34,0.00,,---,0.00,VWS V14.01,2013-03-08 05:06:00,
2013-03-08 00:11:00,28.9,4.1,27.64,WNW,288,3.6,7.6,34,0.00,,---,0.00,VWS V14.01,2013-03-08 05:11:00,
2013-03-08 00:16:00,28.9,4.1,27.64,WSW,240,3.1,5.4,34,0.00,,---,0.00,VWS V14.01,2013-03-08 05:16:00,
2013-03-08 00:21:00,28.9,4.1,27.64,WSW,244,3.1,4.0,34,0.00,,---,0.00,VWS V14.01,2013-03-08 05:21:00,
2013-03-08 00:26:00,28.9,3.5,27.64,SSW,206,4.9,4.9,33,0.00,,---,0.00,VWS V14.01,2013-03-08 05:26:00,
2013-03-08 00:31:00,28.9,3.5,27.64,East,91,3.6,3.6,33,0.00,,---,0.00,VWS V14.01,2013-03-08 05:31:00,
2013-03-08 00:36:00,28.8,3.3,27.61,WNW,303,3.1,5.4,33,0.00,,---,0.00,VWS V14.01,2013-03-08 05:36:00,
2013-03-08 00:41:00,28.8,3.3,27.61,SE,133,5.8,5.8,33,0.00,,---,0.00,VWS V14.01,2013-03-08 05:41:00,
2013-03-08 00:46:00,28.8,3.3,27.61,East,93,2.7,4.0,33,0.00,,---,0.00,VWS V14.01,2013-03-08 05:46:00,
2013-03-08 00:51:00,28.6,3.8,27.61,SW,230,3.1,3.6,34,0.00,,---,0.00,VWS V14.01,2013-03-08 05:51:00,
2013-03-08 00:56:00,28.6,3.8,27.61,WNW,296,2.7,2.7,34,0.00,,---,0.00,VWS V14.01,2013-03-08 05:56:00,
2013-03-08 01:01:00,28.6,3.1,27.61,WNW,294,5.4,5.4,33,0.00,,---,0.00,VWS V14.01,2013-03-08 06:01:00,
2013-03-08 01:06:00,28.4,3.6,27.61,WSW,244,4.9,5.8,34,0.00,,---,0.00,VWS V14.01,2013-03-08 06:06:00,
2013-03-08 01:11:00,28.4,3.6,27.61,WNW,293,4.0,4.0,34,0.00,,---,0.00,VWS V14.01,2013-03-08 06:11:00,
2013-03-08 01:16:00,28.2,4.1,27.61,WNW,282,2.2,3.6,35,0.00,,---,0.00,VWS V14.01,2013-03-08 06:16:00,
2013-03-08 01:21:00,28.2,4.1,27.61,WNW,284,2.7,4.0,35,0.00,,---,0.00,VWS V14.01,2013-03-08 06:21:00,
2013-03-08 01:26:00,28.0,3.9,27.61,WSW,254,0.0,0.0,35,0.00,,---,0.00,VWS V14.01,2013-03-08 06:26:00,
2013-03-08 01:31:00,28.0,3.9,27.61,West,278,2.7,2.7,35,0.00,,---,0.00,VWS V14.01,2013-03-08 06:31:00,
2013-03-08 01:36:00,27.9,3.8,27.61,West,273,3.1,4.0,35,0.00,,---,0.00,VWS V14.01,2013-03-08 06:36:00,
2013-03-08 01:41:00,27.9,4.4,27.61,SW,234,0.0,3.1,36,0.00,,---,0.00,VWS V14.01,2013-03-08 06:41:00,
2013-03-08 01:46:00,27.9,5.6,27.61,West,281,3.6,5.4,38,0.00,,---,0.00,VWS V14.01,2013-03-08 06:46:00,
2013-03-08 01:51:00,28.0,5.7,27.61,NW,305,2.7,2.7,38,0.00,,---,0.00,VWS V14.01,2013-03-08 06:51:00,
2013-03-08 01:56:00,27.9,5.0,27.61,West,275,0.0,2.7,37,0.00,,---,0.00,VWS V14.01,2013-03-08 06:56:00,
2013-03-08 02:01:00,27.9,5.6,27.61,West,265,4.9,5.4,38,0.00,,---,0.00,VWS V14.01,2013-03-08 07:01:00,
2013-03-08 02:06:00,27.9,6.1,27.64,West,259,2.7,3.6,39,0.00,,---,0.00,VWS V14.01,2013-03-08 07:06:00,
2013-03-08 02:11:00,27.9,5.6,27.64,ESE,122,3.6,3.6,38,0.00,,---,0.00,VWS V14.01,2013-03-08 07:11:00,
2013-03-08 02:16:00,27.9,5.6,27.64,WNW,300,0.0,0.0,38,0.00,,---,0.00,VWS V14.01,2013-03-08 07:16:00,
2013-03-08 02:21:00,27.9,6.1,27.64,NNE,23,5.4,5.4,39,0.00,,---,0.00,VWS V14.01,2013-03-08 07:21:00,
2013-03-08 02:26:00,27.9,6.7,27.64,WSW,258,3.6,3.6,40,0.00,,---,0.00,VWS V14.01,2013-03-08 07:26:00,
2013-03-08 02:31:00,27.9,6.7,27.64,SW,219,2.7,2.7,40,0.00,,---,0.00,VWS V14.01,2013-03-08 07:31:00,
2013-03-08 02:36:00,27.9,6.7,27.61,NW,317,2.7,2.7,40,0.00,,---,0.00,VWS V14.01,2013-03-08 07:36:00,
2013-03-08 02:41:00,27.9,7.2,27.61,WNW,299,3.1,3.1,41,0.00,,---,0.00,VWS V14.01,2013-03-08 07:41:00,
2013-03-08 02:46:00,27.9,7.2,27.61,West,273,3.1,3.1,41,0.00,,---,0.00,VWS V14.01,2013-03-08 07:46:00,
2013-03-08 02:51:00,27.9,7.2,27.61,West,276,2.2,3.1,41,0.00,,---,0.00,VWS V14.01,2013-03-08 07:51:00,
2013-03-08 02:56:00,27.9,6.7,27.61,SW,226,2.7,3.1,40,0.00,,---,0.00,VWS V14.01,2013-03-08 07:56:00,
2013-03-08 03:01:00,27.7,6.5,27.61,WSW,256,2.2,2.2,40,0.00,,---,0.00,VWS V14.01,2013-03-08 08:01:00,
2013-03-08 03:06:00,27.7,6.5,27.61,West,265,2.7,3.6,40,0.00,,---,0.00,VWS V14.01,2013-03-08 08:06:00,
2013-03-08 03:11:00,27.5,5.8,27.61,WSW,246,0.0,0.0,39,0.00,,---,0.00,VWS V14.01,2013-03-08 08:11:00,
2013-03-08 03:16:00,27.5,5.8,27.61,ENE,57,0.0,2.7,39,0.00,,---,0.00,VWS V14.01,2013-03-08 08:16:00,
2013-03-08 03:21:00,27.5,5.8,27.61,South,169,2.7,5.8,39,0.00,,---,0.00,VWS V14.01,2013-03-08 08:21:00,
2013-03-08 03:26:00,27.3,5.6,27.61,ESE,115,3.6,3.6,39,0.00,,---,0.00,VWS V14.01,2013-03-08 08:26:00,
2013-03-08 03:31:00,27.3,5.1,27.61,East,101,2.7,2.7,38,0.00,,---,0.00,VWS V14.01,2013-03-08 08:31:00,
2013-03-08 03:36:00,27.1,4.9,27.61,ESE,103,3.1,3.1,38,0.00,,---,0.00,VWS V14.01,2013-03-08 08:36:00,
2013-03-08 03:41:00,27.1,4.9,27.61,ESE,120,2.2,3.1,38,0.00,,---,0.00,VWS V14.01,2013-03-08 08:41:00,
2013-03-08 03:46:00,27.0,4.8,27.61,SE,139,2.7,4.0,38,0.00,,---,0.00,VWS V14.01,2013-03-08 08:46:00,
2013-03-08 03:51:00,26.8,4.6,27.61,NE,45,2.2,2.2,38,0.00,,---,0.00,VWS V14.01,2013-03-08 08:51:00,
2013-03-08 03:56:00,26.6,4.4,27.61,SE,132,2.2,2.2,38,0.00,,---,0.00,VWS V14.01,2013-03-08 08:56:00,
2013-03-08 04:01:00,26.6,5.0,27.61,SSE,160,2.2,2.7,39,0.00,,---,0.00,VWS V14.01,2013-03-08 09:01:00,
2013-03-08 04:06:00,26.6,5.0,27.61,SSE,153,0.0,0.0,39,0.00,,---,0.00,VWS V14.01,2013-03-08 09:06:00,
2013-03-08 04:11:00,26.6,5.0,27.61,SSE,153,0.0,0.0,39,0.00,,---,0.00,VWS V14.01,2013-03-08 09:11:00,
2013-03-08 04:16:00,26.4,4.8,27.61,WNW,285,3.1,3.1,39,0.00,,---,0.00,VWS V14.01,2013-03-08 09:16:00,
2013-03-08 04:21:00,26.4,4.8,27.61,WNW,291,4.9,4.9,39,0.00,,---,0.00,VWS V14.01,2013-03-08 09:21:00,
2013-03-08 04:26:00,26.2,5.2,27.61,West,265,0.0,2.2,40,0.00,,---,0.00,VWS V14.01,2013-03-08 09:26:00,
2013-03-08 04:31:00,26.2,5.2,27.61,SW,235,3.1,3.1,40,0.00,,---,0.00,VWS V14.01,2013-03-08 09:31:00,
2013-03-08 04:36:00,26.2,5.8,27.61,NW,307,2.7,2.7,41,0.00,,---,0.00,VWS V14.01,2013-03-08 09:36:00,
2013-03-08 04:41:00,26.2,5.8,27.61,NW,324,0.0,3.1,41,0.00,,---,0.00,VWS V14.01,2013-03-08 09:41:00,
2013-03-08 04:46:00,26.4,6.4,27.61,West,268,2.7,2.7,42,0.00,,---,0.00,VWS V14.01,2013-03-08 09:46:00,
2013-03-08 04:51:00,26.4,6.4,27.61,West,263,3.1,3.1,42,0.00,,---,0.00,VWS V14.01,2013-03-08 09:51:00,
2013-03-08 04:56:00,26.4,6.4,27.61,NW,311,3.6,4.0,42,0.00,,---,0.00,VWS V14.01,2013-03-08 09:56:00,
2013-03-08 05:01:00,26.6,6.6,27.61,WNW,291,2.2,3.1,42,0.00,,---,0.00,VWS V14.01,2013-03-08 10:01:00,
2013-03-08 05:06:00,26.6,6.6,27.61,SW,221,3.6,3.6,42,0.00,,---,0.00,VWS V14.01,2013-03-08 10:06:00,
2013-03-08 05:11:00,26.8,6.8,27.61,West,270,3.1,3.1,42,0.00,,---,0.00,VWS V14.01,2013-03-08 10:11:00,
2013-03-08 05:16:00,26.8,6.8,27.61,WSW,252,2.7,3.6,42,0.00,,---,0.00,VWS V14.01,2013-03-08 10:16:00,
2013-03-08 05:21:00,26.8,6.8,27.64,WNW,289,3.1,3.1,42,0.00,,---,0.00,VWS V14.01,2013-03-08 10:21:00,
2013-03-08 05:26:00,27.0,6.9,27.64,SW,230,3.1,3.1,42,0.00,,---,0.00,VWS V14.01,2013-03-08 10:26:00,
2013-03-08 05:31:00,27.0,6.9,27.64,West,270,0.0,2.7,42,0.00,,---,0.00,VWS V14.01,2013-03-08 10:31:00,
2013-03-08 05:36:00,26.8,6.8,27.64,WNW,288,3.1,3.1,42,0.00,,---,0.00,VWS V14.01,2013-03-08 10:36:00,
2013-03-08 05:41:00,26.6,6.6,27.64,SW,236,0.0,2.2,42,0.00,,---,0.00,VWS V14.01,2013-03-08 10:41:00,
2013-03-08 05:46:00,26.6,6.6,27.64,WSW,239,2.2,4.0,42,0.00,,---,0.00,VWS V14.01,2013-03-08 10:46:00,
2013-03-08 05:51:00,26.4,6.4,27.64,West,278,2.7,3.1,42,0.00,,---,0.00,VWS V14.01,2013-03-08 10:51:00,
2013-03-08 05:56:00,26.4,6.4,27.64,West,273,0.0,0.0,42,0.00,,---,0.00,VWS V14.01,2013-03-08 10:56:00,
2013-03-08 06:01:00,26.2,6.3,27.64,NW,304,3.1,3.1,42,0.00,,---,0.00,VWS V14.01,2013-03-08 11:01:00,
2013-03-08 06:06:00,26.2,6.3,27.64,West,268,3.6,3.6,42,0.00,,---,0.00,VWS V14.01,2013-03-08 11:06:00,
2013-03-08 06:11:00,26.2,6.3,27.64,WNW,299,4.0,4.0,42,0.00,,---,0.00,VWS V14.01,2013-03-08 11:11:00,
2013-03-08 06:16:00,26.2,6.3,27.64,West,276,2.7,3.6,42,0.00,,---,0.00,VWS V14.01,2013-03-08 11:16:00,
2013-03-08 06:21:00,26.2,6.3,27.64,WNW,283,3.1,3.1,42,0.00,,---,0.00,VWS V14.01,2013-03-08 11:21:00,
2013-03-08 06:26:00,26.1,6.1,27.64,WNW,283,3.6,4.0,42,0.00,,---,0.00,VWS V14.01,2013-03-08 11:26:00,
2013-03-08 06:31:00,26.1,6.1,27.64,WNW,295,4.0,4.0,42,0.00,,---,0.00,VWS V14.01,2013-03-08 11:31:00,
2013-03-08 06:36:00,26.2,6.3,27.64,WNW,288,3.1,3.6,42,0.00,,---,0.00,VWS V14.01,2013-03-08 11:36:00,
2013-03-08 06:41:00,26.1,6.1,27.64,West,280,3.1,3.1,42,0.00,,---,0.00,VWS V14.01,2013-03-08 11:41:00,
2013-03-08 06:46:00,25.9,6.0,27.64,WNW,288,3.6,3.6,42,0.00,,---,0.00,VWS V14.01,2013-03-08 11:46:00,
2013-03-08 06:51:00,25.9,6.0,27.64,WNW,286,2.7,3.1,42,0.00,,---,0.00,VWS V14.01,2013-03-08 11:51:00,
2013-03-08 06:56:00,25.7,5.8,27.64,WSW,254,0.0,2.7,42,0.00,,---,0.00,VWS V14.01,2013-03-08 11:56:00,
2013-03-08 07:01:00,25.7,5.8,27.64,West,277,0.0,3.1,42,0.00,,---,0.00,VWS V14.01,2013-03-08 12:01:00,
2013-03-08 07:06:00,25.7,5.8,27.64,WNW,282,2.2,2.7,42,0.00,,---,0.00,VWS V14.01,2013-03-08 12:06:00,
2013-03-08 07:11:00,25.7,5.8,27.64,WNW,282,2.7,2.7,42,0.00,,---,0.00,VWS V14.01,2013-03-08 12:11:00,
2013-03-08 07:16:00,25.9,6.0,27.64,North,9,2.2,2.7,42,0.00,,---,0.00,VWS V14.01,2013-03-08 12:16:00,
2013-03-08 07:21:00,26.1,6.1,27.67,WNW,303,2.7,2.7,42,0.00,,---,0.00,VWS V14.01,2013-03-08 12:21:00,
2013-03-08 07:26:00,26.2,6.8,27.67,NW,309,2.7,3.1,43,0.00,,---,0.00,VWS V14.01,2013-03-08 12:26:00,
2013-03-08 07:31:00,26.6,7.1,27.67,WNW,300,2.7,3.1,43,0.00,,---,0.00,VWS V14.01,2013-03-08 12:31:00,
2013-03-08 07:36:00,27.0,6.9,27.67,NE,48,0.0,2.2,42,0.00,,---,0.00,VWS V14.01,2013-03-08 12:36:00,
2013-03-08 07:41:00,27.1,7.1,27.67,NW,320,0.0,2.7,42,0.00,,---,0.00,VWS V14.01,2013-03-08 12:41:00,
2013-03-08 07:46:00,27.5,7.4,27.67,North,350,3.6,4.9,42,0.00,,---,0.00,VWS V14.01,2013-03-08 12:46:00,
2013-03-08 07:51:00,27.9,7.2,27.67,WNW,293,3.6,5.4,41,0.00,,---,0.00,VWS V14.01,2013-03-08 12:51:00,
2013-03-08 07:56:00,27.9,7.2,27.67,NW,318,2.7,3.1,41,0.00,,---,0.00,VWS V14.01,2013-03-08 12:56:00,
2013-03-08 08:01:00,28.2,7.0,27.67,NNW,335,3.1,3.1,40,0.00,,---,0.00,VWS V14.01,2013-03-08 13:01:00,
2013-03-08 08:06:00,28.4,6.1,27.67,East,87,3.6,3.6,38,0.00,,---,0.00,VWS V14.01,2013-03-08 13:06:00,
2013-03-08 08:11:00,28.6,5.0,27.67,SE,146,3.1,4.0,36,0.00,,---,0.00,VWS V14.01,2013-03-08 13:11:00,
2013-03-08 08:16:00,28.9,4.7,27.67,NW,322,0.0,2.7,35,0.00,,---,0.00,VWS V14.01,2013-03-08 13:16:00,
2013-03-08 08:21:00,29.1,3.0,27.67,NNW,332,3.6,6.3,32,0.00,,---,0.00,VWS V14.01,2013-03-08 13:21:00,
2013-03-08 08:26:00,29.3,2.4,27.67,NW,304,2.7,4.0,31,0.00,,---,0.00,VWS V14.01,2013-03-08 13:26:00,
2013-03-08 08:31:00,29.5,1.9,27.67,NNW,329,2.7,4.9,30,0.00,,---,0.00,VWS V14.01,2013-03-08 13:31:00,
2013-03-08 08:36:00,29.8,-1.7,27.67,NNW,330,2.7,3.6,25,0.00,,---,0.00,VWS V14.01,2013-03-08 13:36:00,
2013-03-08 08:41:00,30.2,-3.1,27.67,NNE,19,4.9,4.9,23,0.00,,---,0.00,VWS V14.01,2013-03-08 13:41:00,
2013-03-08 08:46:00,30.4,-5.9,27.67,NNW,327,2.7,2.7,20,0.00,,---,0.00,VWS V14.01,2013-03-08 13:46:00,
2013-03-08 08:51:00,30.6,-7.9,27.67,NE,54,4.9,5.4,18,0.00,,---,0.00,VWS V14.01,2013-03-08 13:51:00,
2013-03-08 08:56:00,30.9,-7.6,27.67,West,276,2.2,3.1,18,0.00,,---,0.00,VWS V14.01,2013-03-08 13:56:00,
2013-03-08 09:01:00,31.1,-11.1,27.67,NNE,13,5.4,5.4,15,0.00,,---,0.00,VWS V14.01,2013-03-08 14:01:00,
2013-03-08 09:06:00,31.5,-10.9,27.67,NNW,327,2.7,2.7,15,0.00,,---,0.00,VWS V14.01,2013-03-08 14:06:00,
2013-03-08 09:11:00,31.8,-10.6,27.67,NW,314,2.2,3.1,15,0.00,,---,0.00,VWS V14.01,2013-03-08 14:11:00,
2013-03-08 09:16:00,32.2,-10.3,27.67,West,272,4.0,4.0,15,0.00,,---,0.00,VWS V14.01,2013-03-08 14:16:00,
2013-03-08 09:21:00,32.4,-13.0,27.67,East,90,4.0,5.4,13,0.00,,---,0.00,VWS V14.01,2013-03-08 14:21:00,
2013-03-08 09:26:00,32.7,-12.7,27.67,NNW,337,5.4,5.4,13,0.00,,---,0.00,VWS V14.01,2013-03-08 14:26:00,
2013-03-08 09:31:00,33.1,-12.4,27.67,WSW,252,4.0,4.0,13,0.00,,---,0.00,VWS V14.01,2013-03-08 14:31:00,
2013-03-08 09:36:00,33.6,-12.0,27.67,ESE,114,2.2,3.1,13,0.00,,---,0.00,VWS V14.01,2013-03-08 14:36:00,
2013-03-08 09:41:00,34.2,-13.1,27.67,NW,317,4.0,4.0,12,0.00,,---,0.00,VWS V14.01,2013-03-08 14:41:00,
2013-03-08 09:46:00,34.7,-12.7,27.67,East,95,2.7,3.6,12,0.00,,---,0.00,VWS V14.01,2013-03-08 14:46:00,
2013-03-08 09:51:00,35.2,-12.3,27.67,ESE,107,3.1,5.8,12,0.00,,---,0.00,VWS V14.01,2013-03-08 14:51:00,
2013-03-08 09:56:00,36.0,-11.7,27.67,NNW,338,3.1,3.1,12,0.00,,---,0.00,VWS V14.01,2013-03-08 14:56:00,
2013-03-08 10:01:00,36.5,-11.3,27.67,ESE,120,5.4,5.4,12,0.00,,---,0.00,VWS V14.01,2013-03-08 15:01:00,
2013-03-08 10:06:00,36.9,-11.0,27.67,SE,130,6.3,8.7,12,0.00,,---,0.00,VWS V14.01,2013-03-08 15:06:00,
2013-03-08 10:11:00,37.0,-10.9,27.67,ENE,60,4.0,4.0,12,0.00,,---,0.00,VWS V14.01,2013-03-08 15:11:00,
2013-03-08 10:16:00,37.2,-10.7,27.67,WNW,300,3.1,4.9,12,0.00,,---,0.00,VWS V14.01,2013-03-08 15:16:00,
2013-03-08 10:21:00,37.6,-12.2,27.67,SSW,208,5.8,5.8,11,0.00,,---,0.00,VWS V14.01,2013-03-08 15:21:00,
2013-03-08 10:26:00,37.9,-11.9,27.67,NNE,27,3.6,5.4,11,0.00,,---,0.00,VWS V14.01,2013-03-08 15:26:00,
2013-03-08 10:31:00,38.5,-11.5,27.67,NE,45,4.0,4.0,11,0.00,,---,0.00,VWS V14.01,2013-03-08 15:31:00,
2013-03-08 10:36:00,39.0,-11.0,27.67,NW,311,8.7,8.7,11,0.00,,---,0.00,VWS V14.01,2013-03-08 15:36:00,
2013-03-08 10:41:00,39.0,-11.0,27.67,West,259,2.7,3.6,11,0.00,,---,0.00,VWS V14.01,2013-03-08 15:41:00,
2013-03-08 10:46:00,39.2,-10.9,27.67,South,181,3.1,6.3,11,0.00,,---,0.00,VWS V14.01,2013-03-08 15:46:00,
2013-03-08 10:51:00,39.9,-10.3,27.67,SE,141,0.0,3.6,11,0.00,,---,0.00,VWS V14.01,2013-03-08 15:51:00,
2013-03-08 10:56:00,41.0,-9.5,27.67,SSE,159,0.0,3.6,11,0.00,,---,0.00,VWS V14.01,2013-03-08 15:56:00,
2013-03-08 11:01:00,42.1,-8.6,27.67,SE,142,4.0,4.0,11,0.00,,---,0.00,VWS V14.01,2013-03-08 16:01:00,
2013-03-08 11:06:00,42.8,-10.0,27.67,NE,44,4.9,4.9,10,0.00,,---,0.00,VWS V14.01,2013-03-08 16:06:00,
2013-03-08 11:11:00,43.3,-9.6,27.67,East,83,3.6,4.9,10,0.00,,---,0.00,VWS V14.01,2013-03-08 16:11:00,
2013-03-08 11:16:00,44.1,-9.0,27.67,NE,49,7.6,8.1,10,0.00,,---,0.00,VWS V14.01,2013-03-08 16:16:00,
2013-03-08 11:21:00,44.6,-8.6,27.67,East,79,3.1,3.6,10,0.00,,---,0.00,VWS V14.01,2013-03-08 16:21:00,
2013-03-08 11:26:00,45.0,-8.3,27.67,SSE,162,4.0,6.3,10,0.00,,---,0.00,VWS V14.01,2013-03-08 16:26:00,
2013-03-08 11:31:00,45.7,-7.8,27.67,NE,52,2.7,5.8,10,0.00,,---,0.00,VWS V14.01,2013-03-08 16:31:00,
2013-03-08 11:36:00,45.9,-7.6,27.67,WNW,299,3.1,3.6,10,0.00,,---,0.00,VWS V14.01,2013-03-08 16:36:00,
2013-03-08 11:41:00,45.9,-7.6,27.67,ESE,110,5.4,5.4,10,0.00,,---,0.00,VWS V14.01,2013-03-08 16:41:00,
2013-03-08 11:46:00,46.6,-9.2,27.67,SE,133,5.4,5.4,9,0.00,,---,0.00,VWS V14.01,2013-03-08 16:46:00,
2013-03-08 11:51:00,47.3,-8.7,27.67,NE,48,0.0,4.9,9,0.00,,---,0.00,VWS V14.01,2013-03-08 16:51:00,
2013-03-08 11:56:00,47.5,-8.5,27.67,West,265,2.7,3.6,9,0.00,,---,0.00,VWS V14.01,2013-03-08 16:56:00,
2013-03-08 12:01:00,47.8,-8.3,27.67,NNE,14,3.6,3.6,9,0.00,,---,0.00,VWS V14.01,2013-03-08 17:01:00,
2013-03-08 12:06:00,48.2,-8.0,27.67,SW,235,4.9,6.3,9,0.00,,---,0.00,VWS V14.01,2013-03-08 17:06:00,
2013-03-08 12:11:00,48.4,-7.8,27.67,WSW,253,2.7,2.7,9,0.00,,---,0.00,VWS V14.01,2013-03-08 17:11:00,
2013-03-08 12:16:00,47.8,-8.3,27.67,West,276,4.0,4.0,9,0.00,,---,0.00,VWS V14.01,2013-03-08 17:16:00,
2013-03-08 12:21:00,48.0,-8.1,27.67,West,278,0.0,3.6,9,0.00,,---,0.00,VWS V14.01,2013-03-08 17:21:00,
2013-03-08 12:26:00,48.9,-7.4,27.67,East,101,2.7,3.1,9,0.00,,---,0.00,VWS V14.01,2013-03-08 17:26:00,
2013-03-08 12:31:00,49.6,-6.9,27.67,WSW,245,3.1,7.6,9,0.00,,---,0.00,VWS V14.01,2013-03-08 17:31:00,
2013-03-08 12:36:00,49.8,-6.7,27.67,SE,141,3.6,3.6,9,0.00,,---,0.00,VWS V14.01,2013-03-08 17:36:00,
2013-03-08 12:41:00,49.6,-6.9,27.67,NNE,15,0.0,3.6,9,0.00,,---,0.00,VWS V14.01,2013-03-08 17:41:00,
2013-03-08 12:46:00,49.5,-7.0,27.67,NW,317,2.2,3.1,9,0.00,,---,0.00,VWS V14.01,2013-03-08 17:46:00,
2013-03-08 12:51:00,50.4,-6.3,27.64,NW,313,2.7,3.6,9,0.00,,---,0.00,VWS V14.01,2013-03-08 17:51:00,
2013-03-08 12:56:00,50.5,-6.2,27.64,West,268,3.1,3.1,9,0.00,,---,0.00,VWS V14.01,2013-03-08 17:56:00,
2013-03-08 13:01:00,50.2,-6.5,27.64,NNW,333,4.0,4.0,9,0.00,,---,0.00,VWS V14.01,2013-03-08 18:01:00,
2013-03-08 13:06:00,50.2,-6.5,27.64,SE,127,2.7,2.7,9,0.00,,---,0.00,VWS V14.01,2013-03-08 18:06:00,
2013-03-08 13:11:00,51.8,-7.7,27.64,SW,232,3.6,4.9,8,0.00,,---,0.00,VWS V14.01,2013-03-08 18:11:00,
2013-03-08 13:16:00,52.3,-7.2,27.64,WNW,300,4.0,4.0,8,0.00,,---,0.00,VWS V14.01,2013-03-08 18:16:00,
2013-03-08 13:21:00,52.5,-7.1,27.64,ESE,103,5.8,8.1,8,0.00,,---,0.00,VWS V14.01,2013-03-08 18:21:00,
2013-03-08 13:26:00,52.9,-6.8,27.64,WNW,302,6.3,6.3,8,0.00,,---,0.00,VWS V14.01,2013-03-08 18:26:00,
2013-03-08 13:31:00,52.9,-6.8,27.64,North,11,5.4,5.4,8,0.00,,---,0.00,VWS V14.01,2013-03-08 18:31:00,
2013-03-08 13:36:00,53.8,-6.2,27.64,East,83,3.6,5.8,8,0.00,,---,0.00,VWS V14.01,2013-03-08 18:36:00,
2013-03-08 13:41:00,54.9,-5.3,27.64,West,270,4.0,4.0,8,0.00,,---,0.00,VWS V14.01,2013-03-08 18:41:00,
2013-03-08 13:46:00,55.6,-7.6,27.64,NNE,28,6.3,6.3,7,0.00,,---,0.00,VWS V14.01,2013-03-08 18:46:00,
2013-03-08 13:51:00,55.6,-7.6,27.64,ESE,106,4.5,4.5,7,0.00,,---,0.00,VWS V14.01,2013-03-08 18:51:00,
2013-03-08 13:56:00,56.3,-7.0,27.64,East,85,5.4,5.4,7,0.00,,---,0.00,VWS V14.01,2013-03-08 18:56:00,
2013-03-08 14:01:00,57.2,-6.3,27.64,NNE,30,6.3,6.3,7,0.00,,---,0.00,VWS V14.01,2013-03-08 19:01:00,
2013-03-08 14:06:00,56.8,-6.6,27.64,NNW,341,2.7,3.6,7,0.00,,---,0.00,VWS V14.01,2013-03-08 19:06:00,
2013-03-08 14:11:00,56.1,-7.2,27.64,SSE,155,5.8,7.6,7,0.00,,---,0.00,VWS V14.01,2013-03-08 19:11:00,
2013-03-08 14:16:00,56.3,-7.0,27.64,ENE,58,3.1,4.9,7,0.00,,---,0.00,VWS V14.01,2013-03-08 19:16:00,
2013-03-08 14:21:00,56.5,-6.9,27.64,South,189,4.0,5.4,7,0.00,,---,0.00,VWS V14.01,2013-03-08 19:21:00,
2013-03-08 14:26:00,56.7,-6.8,27.64,West,281,3.1,3.6,7,0.00,,---,0.00,VWS V14.01,2013-03-08 19:26:00,
2013-03-08 14:31:00,56.3,-7.0,27.64,West,261,5.4,5.4,7,0.00,,---,0.00,VWS V14.01,2013-03-08 19:31:00,
2013-03-08 14:36:00,56.5,-6.9,27.64,West,263,3.1,4.0,7,0.00,,---,0.00,VWS V14.01,2013-03-08 19:36:00,
2013-03-08 14:41:00,56.7,-6.8,27.64,ENE,58,9.6,9.6,7,0.00,,---,0.00,VWS V14.01,2013-03-08 19:41:00,
2013-03-08 14:46:00,57.4,-6.2,27.64,WSW,246,2.2,3.6,7,0.00,,---,0.00,VWS V14.01,2013-03-08 19:46:00,
2013-03-08 14:51:00,58.5,-5.4,27.61,NW,322,3.6,4.0,7,0.00,,---,0.00,VWS V14.01,2013-03-08 19:51:00,
2013-03-08 14:56:00,59.7,-4.5,27.61,West,278,4.0,4.0,7,0.00,,---,0.00,VWS V14.01,2013-03-08 19:56:00,
2013-03-08 15:01:00,59.2,-4.9,27.61,West,259,2.7,2.7,7,0.00,,---,0.00,VWS V14.01,2013-03-08 20:01:00,
2013-03-08 15:06:00,59.9,-4.3,27.61,ESE,116,5.8,5.8,7,0.00,,---,0.00,VWS V14.01,2013-03-08 20:06:00,
2013-03-08 15:11:00,61.7,-6.2,27.61,WSW,238,5.4,5.4,6,0.00,,---,0.00,VWS V14.01,2013-03-08 20:11:00,
2013-03-08 15:16:00,61.9,-6.1,27.61,WNW,302,3.6,3.6,6,0.00,,---,0.00,VWS V14.01,2013-03-08 20:16:00,
2013-03-08 15:21:00,60.8,-6.9,27.64,SE,135,4.0,4.9,6,0.00,,---,0.00,VWS V14.01,2013-03-08 20:21:00,
2013-03-08 15:26:00,60.1,-4.2,27.64,SE,128,4.9,6.3,7,0.00,,---,0.00,VWS V14.01,2013-03-08 20:26:00,
2013-03-08 15:31:00,61.5,-6.3,27.64,West,271,3.1,4.0,6,0.00,,---,0.00,VWS V14.01,2013-03-08 20:31:00,
2013-03-08 15:36:00,62.1,-6.0,27.64,SE,128,5.8,5.8,6,0.00,,---,0.00,VWS V14.01,2013-03-08 20:36:00,
2013-03-08 15:41:00,62.1,-6.0,27.64,East,89,4.9,4.9,6,0.00,,---,0.00,VWS V14.01,2013-03-08 20:41:00,
2013-03-08 15:46:00,61.3,-6.5,27.64,WSW,252,3.6,3.6,6,0.00,,---,0.00,VWS V14.01,2013-03-08 20:46:00,
2013-03-08 15:51:00,61.0,-6.7,27.61,SE,134,2.7,2.7,6,0.00,,---,0.00,VWS V14.01,2013-03-08 20:51:00,
2013-03-08 15:56:00,60.1,-4.2,27.61,SW,216,3.1,3.1,7,0.00,,---,0.00,VWS V14.01,2013-03-08 20:56:00,
2013-03-08 16:01:00,61.9,-6.1,27.61,SE,135,4.0,4.0,6,0.00,,---,0.00,VWS V14.01,2013-03-08 21:01:00,
2013-03-08 16:06:00,64.2,-4.4,27.61,ESE,103,4.0,4.9,6,0.00,,---,0.00,VWS V14.01,2013-03-08 21:06:00,
2013-03-08 16:11:00,63.7,-4.8,27.61,NE,55,6.3,8.3,6,0.00,,---,0.00,VWS V14.01,2013-03-08 21:11:00,
2013-03-08 16:16:00,62.8,-5.4,27.61,SSE,152,4.0,5.4,6,0.00,,---,0.00,VWS V14.01,2013-03-08 21:16:00,
2013-03-08 16:21:00,62.1,-6.0,27.61,SSE,159,3.6,4.0,6,0.00,,---,0.00,VWS V14.01,2013-03-08 21:21:00,
2013-03-08 16:26:00,61.0,-6.7,27.61,ESE,110,3.1,5.4,6,0.00,,---,0.00,VWS V14.01,2013-03-08 21:26:00,
2013-03-08 16:31:00,60.4,-4.0,27.61,ESE,123,3.6,4.9,7,0.00,,---,0.00,VWS V14.01,2013-03-08 21:31:00,
2013-03-08 16:36:00,59.2,-4.9,27.61,South,179,2.2,3.6,7,0.00,,---,0.00,VWS V14.01,2013-03-08 21:36:00,
2013-03-08 16:41:00,57.7,-5.9,27.61,SSW,198,6.3,6.3,7,0.00,,---,0.00,VWS V14.01,2013-03-08 21:41:00,
2013-03-08 16:46:00,57.2,-6.3,27.61,ESE,102,8.7,8.7,7,0.00,,---,0.00,VWS V14.01,2013-03-08 21:46:00,
2013-03-08 16:51:00,57.7,-5.9,27.61,SE,124,8.7,8.7,7,0.00,,---,0.00,VWS V14.01,2013-03-08 21:51:00,
2013-03-08 16:56:00,59.5,-4.6,27.61,SE,137,5.4,5.4,7,0.00,,---,0.00,VWS V14.01,2013-03-08 21:56:00,
2013-03-08 17:01:00,60.6,-3.8,27.61,SSE,165,2.7,3.6,7,0.00,,---,0.00,VWS V14.01,2013-03-08 22:01:00,
2013-03-08 17:06:00,60.4,-4.0,27.61,South,183,2.2,2.7,7,0.00,,---,0.00,VWS V14.01,2013-03-08 22:06:00,
2013-03-08 17:11:00,59.2,-4.9,27.61,East,94,2.7,2.7,7,0.00,,---,0.00,VWS V14.01,2013-03-08 22:11:00,
2013-03-08 17:16:00,57.2,-6.3,27.61,NW,316,3.6,3.6,7,0.00,,---,0.00,VWS V14.01,2013-03-08 22:16:00,
2013-03-08 17:21:00,54.3,-5.8,27.61,ESE,117,2.7,2.7,8,0.00,,---,0.00,VWS V14.01,2013-03-08 22:21:00,
2013-03-08 17:26:00,52.7,-7.0,27.61,NNW,338,5.4,5.8,8,0.00,,---,0.00,VWS V14.01,2013-03-08 22:26:00,
2013-03-08 17:31:00,51.4,-5.5,27.61,NNE,26,6.3,6.3,9,0.00,,---,0.00,VWS V14.01,2013-03-08 22:31:00,
2013-03-08 17:36:00,50.5,-6.2,27.64,WNW,284,3.1,3.6,9,0.00,,---,0.00,VWS V14.01,2013-03-08 22:36:00,
2013-03-08 17:41:00,49.8,-6.7,27.64,ENE,64,2.2,5.4,9,0.00,,---,0.00,VWS V14.01,2013-03-08 22:41:00,
2013-03-08 17:46:00,49.1,-7.3,27.64,SE,127,3.6,3.6,9,0.00,,---,0.00,VWS V14.01,2013-03-08 22:46:00,
2013-03-08 17:51:00,48.7,-7.6,27.64,East,99,2.7,2.7,9,0.00,,---,0.00,VWS V14.01,2013-03-08 22:51:00,
2013-03-08 17:56:00,48.0,-8.1,27.64,SE,144,3.1,3.1,9,0.00,,---,0.00,VWS V14.01,2013-03-08 22:56:00,
2013-03-08 18:01:00,47.7,-8.4,27.64,SE,126,0.0,0.0,9,0.00,,---,0.00,VWS V14.01,2013-03-08 23:01:00,
2013-03-08 18:06:00,47.1,-8.8,27.64,SE,128,0.0,0.0,9,0.00,,---,0.00,VWS V14.01,2013-03-08 23:06:00,
2013-03-08 18:11:00,46.6,-9.2,27.64,SE,135,0.0,2.2,9,0.00,,---,0.00,VWS V14.01,2013-03-08 23:11:00,
2013-03-08 18:16:00,45.7,-7.8,27.64,SE,136,0.0,0.0,10,0.00,,---,0.00,VWS V14.01,2013-03-08 23:16:00,
2013-03-08 18:21:00,45.0,-8.3,27.64,West,271,2.7,2.7,10,0.00,,---,0.00,VWS V14.01,2013-03-08 23:21:00,
2013-03-08 18:26:00,44.6,-8.6,27.64,WNW,284,0.0,0.0,10,0.00,,---,0.00,VWS V14.01,2013-03-08 23:26:00,
2013-03-08 18:31:00,44.1,-9.0,27.64,West,272,3.6,3.6,10,0.00,,---,0.00,VWS V14.01,2013-03-08 23:31:00,
2013-03-08 18:36:00,43.7,-9.3,27.64,West,269,0.0,0.0,10,0.00,,---,0.00,VWS V14.01,2013-03-08 23:36:00,
2013-03-08 18:41:00,43.3,-9.6,27.64,West,278,3.1,3.1,10,0.00,,---,0.00,VWS V14.01,2013-03-08 23:41:00,
2013-03-08 18:46:00,43.0,-9.9,27.64,West,277,2.7,2.7,10,0.00,,---,0.00,VWS V14.01,2013-03-08 23:46:00,
2013-03-08 18:51:00,42.4,-8.4,27.64,WNW,282,2.7,2.7,11,0.00,,---,0.00,VWS V14.01,2013-03-08 23:51:00,
2013-03-08 18:56:00,42.3,-8.5,27.64,NW,308,2.2,3.1,11,0.00,,---,0.00,VWS V14.01,2013-03-08 23:56:00,
2013-03-08 19:01:00,42.1,-8.6,27.64,SW,227,2.7,3.1,11,0.00,,---,0.00,VWS V14.01,2013-03-09 00:01:00,
2013-03-08 19:06:00,42.1,-8.6,27.64,West,276,4.0,5.4,11,0.00,,---,0.00,VWS V14.01,2013-03-09 00:06:00,
2013-03-08 19:11:00,42.1,-8.6,27.64,SW,223,0.0,0.0,11,0.00,,---,0.00,VWS V14.01,2013-03-09 00:11:00,
2013-03-08 19:16:00,41.9,-8.8,27.64,WNW,302,2.7,4.0,11,0.00,,---,0.00,VWS V14.01,2013-03-09 00:16:00,
2013-03-08 19:21:00,41.7,-8.9,27.64,WSW,249,3.6,3.6,11,0.00,,---,0.00,VWS V14.01,2013-03-09 00:21:00,
2013-03-08 19:26:00,41.5,-9.1,27.64,NW,322,3.6,3.6,11,0.00,,---,0.00,VWS V14.01,2013-03-09 00:26:00,
2013-03-08 19:31:00,41.5,-9.1,27.64,West,280,3.1,3.6,11,0.00,,---,0.00,VWS V14.01,2013-03-09 00:31:00,
2013-03-08 19:36:00,41.4,-9.2,27.64,NNE,25,3.1,4.0,11,0.00,,---,0.00,VWS V14.01,2013-03-09 00:36:00,
2013-03-08 19:41:00,41.2,-9.3,27.64,NW,319,4.5,5.4,11,0.00,,---,0.00,VWS V14.01,2013-03-09 00:41:00,
2013-03-08 19:46:00,41.2,-9.3,27.64,WNW,297,3.1,3.1,11,0.00,,---,0.00,VWS V14.01,2013-03-09 00:46:00,
2013-03-08 19:51:00,41.0,-9.5,27.67,NE,46,5.4,8.3,11,0.00,,---,0.00,VWS V14.01,2013-03-09 00:51:00,
2013-03-08 19:56:00,40.8,-9.6,27.67,West,262,0.0,0.0,11,0.00,,---,0.00,VWS V14.01,2013-03-09 00:56:00,
2013-03-08 20:01:00,40.5,-9.9,27.67,East,98,0.0,0.0,11,0.00,,---,0.00,VWS V14.01,2013-03-09 01:01:00,
2013-03-08 20:06:00,40.1,-10.2,27.67,SW,234,0.0,2.2,11,0.00,,---,0.00,VWS V14.01,2013-03-09 01:06:00,
2013-03-08 20:11:00,39.7,-10.5,27.67,NE,54,3.1,3.1,11,0.00,,---,0.00,VWS V14.01,2013-03-09 01:11:00,
2013-03-08 20:16:00,39.4,-10.8,27.67,North,5,0.0,0.0,11,0.00,,---,0.00,VWS V14.01,2013-03-09 01:16:00,
2013-03-08 20:21:00,39.2,-10.9,27.67,East,98,0.0,0.0,11,0.00,,---,0.00,VWS V14.01,2013-03-09 01:21:00,
2013-03-08 20:26:00,38.8,-11.2,27.67,East,98,0.0,0.0,11,0.00,,---,0.00,VWS V14.01,2013-03-09 01:26:00,
2013-03-08 20:31:00,38.7,-11.3,27.67,North,6,0.0,2.7,11,0.00,,---,0.00,VWS V14.01,2013-03-09 01:31:00,
2013-03-08 20:36:00,38.3,-11.6,27.67,North,0,2.2,2.7,11,0.00,,---,0.00,VWS V14.01,2013-03-09 01:36:00,
2013-03-08 20:41:00,37.9,-11.9,27.67,ESE,114,2.2,2.2,11,0.00,,---,0.00,VWS V14.01,2013-03-09 01:41:00,
2013-03-08 20:46:00,37.6,-12.2,27.67,West,275,0.0,0.0,11,0.00,,---,0.00,VWS V14.01,2013-03-09 01:46:00,
2013-03-08 20:51:00,37.2,-10.7,27.70,West,275,0.0,0.0,12,0.00,,---,0.00,VWS V14.01,2013-03-09 01:51:00,
2013-03-08 20:56:00,36.9,-11.0,27.70,West,275,0.0,0.0,12,0.00,,---,0.00,VWS V14.01,2013-03-09 01:56:00,
2013-03-08 21:01:00,36.7,-11.1,27.70,West,274,0.0,2.2,12,0.00,,---,0.00,VWS V14.01,2013-03-09 02:01:00,
2013-03-08 21:06:00,36.3,-11.4,27.70,SE,142,0.0,0.0,12,0.00,,---,0.00,VWS V14.01,2013-03-09 02:06:00,
2013-03-08 21:11:00,36.3,-11.4,27.70,SE,143,0.0,2.2,12,0.00,,---,0.00,VWS V14.01,2013-03-09 02:11:00,
2013-03-08 21:16:00,36.0,-11.7,27.70,SE,143,0.0,0.0,12,0.00,,---,0.00,VWS V14.01,2013-03-09 02:16:00,
2013-03-08 21:21:00,36.0,-11.7,27.70,North,353,0.0,3.1,12,0.00,,---,0.00,VWS V14.01,2013-03-09 02:21:00,
2013-03-08 21:26:00,36.0,-11.7,27.70,North,353,0.0,0.0,12,0.00,,---,0.00,VWS V14.01,2013-03-09 02:26:00,
2013-03-08 21:31:00,36.0,-11.7,27.70,SSW,208,0.0,0.0,12,0.00,,---,0.00,VWS V14.01,2013-03-09 02:31:00,
2013-03-08 21:36:00,36.1,-11.6,27.67,NNW,327,2.2,2.2,12,0.00,,---,0.00,VWS V14.01,2013-03-09 02:36:00,
2013-03-08 21:41:00,36.1,-11.6,27.67,NW,318,0.0,0.0,12,0.00,,---,0.00,VWS V14.01,2013-03-09 02:41:00,
2013-03-08 21:46:00,35.8,-11.9,27.67,NW,318,0.0,0.0,12,0.00,,---,0.00,VWS V14.01,2013-03-09 02:46:00,
2013-03-08 21:51:00,35.8,-11.9,27.67,NW,313,0.0,0.0,12,0.00,,---,0.00,VWS V14.01,2013-03-09 02:51:00,
2013-03-08 21:56:00,35.4,-12.1,27.67,NW,313,0.0,0.0,12,0.00,,---,0.00,VWS V14.01,2013-03-09 02:56:00,
2013-03-08 22:01:00,35.2,-12.3,27.67,NW,324,0.0,2.7,12,0.00,,---,0.00,VWS V14.01,2013-03-09 03:01:00,
2013-03-08 22:06:00,35.1,-12.4,27.67,East,79,3.1,3.1,12,0.00,,---,0.00,VWS V14.01,2013-03-09 03:06:00,
2013-03-08 22:11:00,35.1,-12.4,27.67,West,267,3.1,3.1,12,0.00,,---,0.00,VWS V14.01,2013-03-09 03:11:00,
2013-03-08 22:16:00,35.1,-12.4,27.67,WNW,292,3.1,3.1,12,0.00,,---,0.00,VWS V14.01,2013-03-09 03:16:00,
2013-03-08 22:21:00,35.1,-12.4,27.67,NE,54,2.2,2.7,12,0.00,,---,0.00,VWS V14.01,2013-03-09 03:21:00,
2013-03-08 22:26:00,35.1,-12.4,27.67,ESE,115,4.0,4.0,12,0.00,,---,0.00,VWS V14.01,2013-03-09 03:26:00,
2013-03-08 22:31:00,34.9,-12.6,27.67,ESE,122,2.7,2.7,12,0.00,,---,0.00,VWS V14.01,2013-03-09 03:31:00,
2013-03-08 22:36:00,34.9,-12.6,27.67,ESE,119,2.7,3.6,12,0.00,,---,0.00,VWS V14.01,2013-03-09 03:36:00,
2013-03-08 22:41:00,34.7,-12.7,27.67,ENE,67,3.6,3.6,12,0.00,,---,0.00,VWS V14.01,2013-03-09 03:41:00,
2013-03-08 22:46:00,34.5,-12.9,27.67,SSE,164,0.0,0.0,12,0.00,,---,0.00,VWS V14.01,2013-03-09 03:46:00,
2013-03-08 22:51:00,34.5,-12.9,27.67,NW,309,2.2,2.2,12,0.00,,---,0.00,VWS V14.01,2013-03-09 03:51:00,
2013-03-08 22:56:00,34.5,-12.9,27.67,ENE,64,2.7,2.7,12,0.00,,---,0.00,VWS V14.01,2013-03-09 03:56:00,
2013-03-08 23:01:00,34.5,-12.9,27.67,ENE,63,0.0,0.0,12,0.00,,---,0.00,VWS V14.01,2013-03-09 04:01:00,
2013-03-08 23:06:00,35.1,-12.4,27.67,West,276,2.7,2.7,12,0.00,,---,0.00,VWS V14.01,2013-03-09 04:06:00,
2013-03-08 23:11:00,35.6,-12.0,27.67,West,276,0.0,0.0,12,0.00,,---,0.00,VWS V14.01,2013-03-09 04:11:00,
2013-03-08 23:16:00,35.6,-12.0,27.67,West,276,0.0,0.0,12,0.00,,---,0.00,VWS V14.01,2013-03-09 04:16:00,
2013-03-08 23:21:00,35.2,-12.3,27.67,SSE,159,0.0,0.0,12,0.00,,---,0.00,VWS V14.01,2013-03-09 04:21:00,
2013-03-08 23:26:00,34.7,-12.7,27.67,NW,324,2.2,2.2,12,0.00,,---,0.00,VWS V14.01,2013-03-09 04:26:00,
2013-03-08 23:31:00,34.5,-12.9,27.67,NW,306,0.0,0.0,12,0.00,,---,0.00,VWS V14.01,2013-03-09 04:31:00,
2013-03-08 23:36:00,34.3,-13.0,27.67,NW,306,0.0,0.0,12,0.00,,---,0.00,VWS V14.01,2013-03-09 04:36:00,
2013-03-08 23:41:00,34.2,-13.1,27.67,NW,306,0.0,0.0,12,0.00,,---,0.00,VWS V14.01,2013-03-09 04:41:00,
2013-03-08 23:46:00,34.0,-13.3,27.67,NW,306,0.0,0.0,12,0.00,,---,0.00,VWS V14.01,2013-03-09 04:46:00,
2013-03-08 23:51:00,33.8,-13.4,27.67,NW,306,0.0,0.0,12,0.00,,---,0.00,VWS V14.01,2013-03-09 04:51:00,
2013-03-08 23:56:00,33.6,-12.0,27.67,NW,306,0.0,0.0,13,0.00,,---,0.00,VWS V14.01,2013-03-09 04:56:00,